Time;durP1;ratioP1;P1;durP2;ratioP2;P2;SDS_P1;SDS_P2;PMS_P1;PMS_P2;Temp;Humidity;BMP_temperature;BMP_pressure;BME280_temperature;BME280_humidity;BME280_pressure;Samples;Min_cycle;Max_cycle;Signal;HPM_P1;HPM_P2
2023/10/27 00:01:03;;;;;;;5.37;4.87;;;9.90;99.90;;;;;;5122819;27;21008;-82
2023/10/27 00:03:30;;;;;;;5.47;4.87;;;9.90;99.90;;;;;;5118956;27;20442;-82
2023/10/27 00:05:57;;;;;;;4.57;4.17;;;9.80;99.90;;;;;;5114153;27;20547;-82
2023/10/27 00:08:25;;;;;;;4.87;4.47;;;9.80;99.90;;;;;;5111218;27;20503;-81
2023/10/27 00:10:53;;;;;;;4.10;3.80;;;9.70;99.90;;;;;;5112982;27;20832;-81
2023/10/27 00:13:20;;;;;;;5.20;4.70;;;9.70;99.90;;;;;;5106854;27;20442;-81
2023/10/27 00:15:47;;;;;;;5.93;4.80;;;9.60;99.90;;;;;;5116574;27;20484;-81
2023/10/27 00:18:14;;;;;;;4.33;3.97;;;9.60;99.90;;;;;;5113460;27;21090;-81
2023/10/27 00:20:41;;;;;;;5.93;5.47;;;9.60;99.90;;;;;;5110683;27;20434;-81
2023/10/27 00:23:09;;;;;;;5.80;5.30;;;9.60;99.90;;;;;;5112718;27;20570;-81
2023/10/27 00:25:37;;;;;;;5.07;4.57;;;9.60;99.90;;;;;;5122004;27;20491;-81
2023/10/27 00:28:05;;;;;;;5.33;4.93;;;9.70;99.90;;;;;;5135139;27;20504;-81
2023/10/27 00:30:31;;;;;;;6.00;5.53;;;9.80;99.90;;;;;;5119961;27;20461;-81
2023/10/27 00:32:58;;;;;;;7.37;6.20;;;9.80;99.90;;;;;;5106226;27;20540;-81
2023/10/27 00:35:25;;;;;;;5.30;4.80;;;9.60;99.90;;;;;;5122846;27;20466;-81
2023/10/27 00:37:52;;;;;;;6.23;5.73;;;9.50;99.90;;;;;;5106283;27;21078;-82
2023/10/27 00:40:19;;;;;;;8.60;7.57;;;9.60;99.90;;;;;;5104353;27;20489;-81
2023/10/27 00:42:48;;;;;;;7.10;6.10;;;9.60;99.90;;;;;;5112461;27;20511;-81
2023/10/27 00:45:14;;;;;;;6.70;6.20;;;9.50;99.90;;;;;;5124549;27;20515;-81
2023/10/27 00:47:41;;;;;;;5.13;4.73;;;9.50;99.90;;;;;;5105425;27;20446;-81
2023/10/27 00:50:09;;;;;;;7.40;5.20;;;9.40;99.90;;;;;;5121321;27;20936;-82
2023/10/27 00:52:37;;;;;;;7.10;6.50;;;9.40;99.90;;;;;;5105242;27;20682;-81
2023/10/27 00:55:06;;;;;;;5.70;5.30;;;9.50;99.90;;;;;;5110187;27;20507;-81
2023/10/27 00:57:36;;;;;;;5.27;4.67;;;9.50;99.90;;;;;;5113415;27;20464;-81
2023/10/27 01:00:07;;;;;;;4.20;3.80;;;9.50;99.90;;;;;;5110331;27;20503;-81
2023/10/27 01:02:34;;;;;;;4.90;4.27;;;9.60;99.90;;;;;;5116368;27;20442;-81
2023/10/27 01:05:01;;;;;;;4.17;3.87;;;9.60;99.90;;;;;;5119602;27;20634;-81
2023/10/27 01:07:29;;;;;;;5.93;5.33;;;9.60;99.90;;;;;;5109540;27;20519;-81
2023/10/27 01:09:56;;;;;;;5.60;5.10;;;9.50;99.90;;;;;;5107873;27;20633;-81
2023/10/27 01:12:23;;;;;;;7.77;7.07;;;9.30;99.90;;;;;;5103308;27;20554;-81
2023/10/27 01:14:49;;;;;;;5.97;5.47;;;9.30;99.90;;;;;;5120572;27;20517;-81
2023/10/27 01:17:18;;;;;;;8.50;6.13;;;9.30;99.90;;;;;;5115675;27;20460;-80
2023/10/27 01:19:45;;;;;;;6.17;5.57;;;9.20;99.90;;;;;;5105631;27;20493;-81
2023/10/27 01:22:14;;;;;;;6.77;5.43;;;9.30;99.90;;;;;;5112870;27;20485;-81
2023/10/27 01:24:43;;;;;;;6.83;6.20;;;9.30;99.90;;;;;;5110121;27;20528;-81
2023/10/27 01:27:10;;;;;;;6.47;5.87;;;9.30;99.90;;;;;;5104637;27;20547;-80
2023/10/27 01:29:37;;;;;;;6.93;5.63;;;9.30;99.90;;;;;;5107533;27;20511;-80
2023/10/27 01:32:04;;;;;;;6.50;5.90;;;9.30;99.90;;;;;;5116591;27;20481;-80
2023/10/27 01:34:31;;;;;;;6.07;5.47;;;9.30;99.90;;;;;;5103540;27;20490;-80
2023/10/27 01:36:58;;;;;;;5.37;4.97;;;9.30;99.90;;;;;;5127116;27;20910;-81
2023/10/27 01:39:25;;;;;;;7.17;5.50;;;9.30;99.90;;;;;;5118413;27;20554;-80
2023/10/27 01:41:53;;;;;;;7.80;7.10;;;9.30;99.90;;;;;;5109229;27;20839;-80
2023/10/27 01:44:20;;;;;;;7.10;6.50;;;9.30;99.90;;;;;;5112157;27;20465;-80
2023/10/27 01:46:47;;;;;;;7.60;6.90;;;9.30;99.90;;;;;;5123061;27;21013;-80
2023/10/27 01:49:15;;;;;;;5.90;5.33;;;9.20;99.90;;;;;;5105939;27;20522;-81
2023/10/27 01:51:42;;;;;;;8.03;7.07;;;9.30;99.90;;;;;;5111769;27;20497;-81
2023/10/27 01:54:09;;;;;;;6.20;5.70;;;9.30;99.90;;;;;;5111372;27;20538;-81
2023/10/27 01:56:35;;;;;;;6.37;5.77;;;9.30;99.90;;;;;;5119843;27;20481;-80
2023/10/27 01:59:04;;;;;;;6.57;5.97;;;9.30;99.90;;;;;;5119637;27;20446;-81
2023/10/27 02:01:31;;;;;;;5.83;5.30;;;9.30;99.90;;;;;;5108308;27;20481;-80
2023/10/27 02:03:58;;;;;;;7.90;6.50;;;9.30;99.90;;;;;;5111293;27;20484;-81
2023/10/27 02:06:26;;;;;;;5.90;5.40;;;9.40;99.90;;;;;;5115180;27;20513;-81
2023/10/27 02:08:53;;;;;;;6.53;5.40;;;9.40;99.90;;;;;;5119357;27;20785;-81
2023/10/27 02:11:20;;;;;;;5.70;5.30;;;9.50;99.90;;;;;;5116886;27;21035;-81
2023/10/27 02:13:47;;;;;;;5.77;5.37;;;9.60;99.90;;;;;;5117770;27;21013;-81
2023/10/27 02:16:16;;;;;;;5.23;4.83;;;9.60;99.90;;;;;;5110511;27;20434;-81
2023/10/27 02:18:42;;;;;;;5.80;5.17;;;9.60;99.90;;;;;;5109515;27;20454;-81
2023/10/27 02:21:09;;;;;;;8.67;4.40;;;9.70;99.90;;;;;;5115914;27;20446;-81
2023/10/27 02:23:37;;;;;;;5.80;5.30;;;9.70;99.90;;;;;;5107061;27;20437;-81
2023/10/27 02:26:04;;;;;;;6.60;5.83;;;9.70;99.90;;;;;;5107750;27;20538;-81
2023/10/27 02:28:31;;;;;;;6.33;5.73;;;9.70;99.90;;;;;;5106601;27;20478;-81
2023/10/27 02:30:58;;;;;;;9.93;6.40;;;9.70;99.90;;;;;;5110050;27;20945;-81
2023/10/27 02:33:26;;;;;;;7.03;6.27;;;9.70;99.90;;;;;;5112805;27;20523;-81
2023/10/27 02:35:53;;;;;;;10.47;8.10;;;9.70;99.90;;;;;;5112911;27;20495;-81
2023/10/27 02:38:20;;;;;;;8.53;7.70;;;9.70;99.90;;;;;;5112871;27;20984;-81
2023/10/27 02:40:47;;;;;;;8.93;8.03;;;9.70;99.90;;;;;;5117393;27;20553;-81
2023/10/27 02:43:14;;;;;;;9.20;7.60;;;9.70;99.90;;;;;;5112352;27;21006;-81
2023/10/27 02:45:41;;;;;;;7.07;6.50;;;9.70;99.90;;;;;;5108634;27;20582;-81
2023/10/27 02:48:08;;;;;;;9.90;7.00;;;9.70;99.90;;;;;;5108767;27;20489;-81
2023/10/27 02:50:36;;;;;;;7.47;6.77;;;9.70;99.90;;;;;;5108705;27;20513;-81
2023/10/27 02:53:03;;;;;;;7.57;6.87;;;9.80;99.90;;;;;;5110161;27;20481;-82
2023/10/27 02:55:30;;;;;;;8.03;6.90;;;9.80;99.90;;;;;;5122195;27;20434;-82
2023/10/27 02:57:58;;;;;;;6.53;5.93;;;9.80;99.90;;;;;;5110364;27;20842;-82
2023/10/27 03:00:25;;;;;;;6.10;5.57;;;9.80;99.90;;;;;;5103898;27;20450;-81
2023/10/27 03:02:52;;;;;;;6.40;5.77;;;9.80;99.90;;;;;;5116824;27;20466;-81
2023/10/27 03:05:19;;;;;;;6.90;5.87;;;9.90;99.90;;;;;;5113225;27;20481;-81
2023/10/27 03:07:47;;;;;;;6.63;6.10;;;9.90;99.90;;;;;;5119177;27;21167;-81
2023/10/27 03:10:15;;;;;;;6.17;5.33;;;9.90;99.90;;;;;;5115459;27;20493;-81
2023/10/27 03:12:42;;;;;;;8.63;4.80;;;10.00;99.90;;;;;;5115333;27;20474;-81
2023/10/27 03:15:10;;;;;;;5.63;5.13;;;10.00;99.90;;;;;;5113068;27;20932;-81
2023/10/27 03:17:37;;;;;;;12.10;5.70;;;9.90;99.90;;;;;;5116406;27;21494;-81
2023/10/27 03:20:06;;;;;;;5.03;4.53;;;10.00;99.90;;;;;;5110673;27;20448;-81
2023/10/27 03:22:33;;;;;;;4.40;3.93;;;9.90;99.90;;;;;;5112831;27;20478;-81
2023/10/27 03:25:03;;;;;;;5.53;4.77;;;9.90;99.90;;;;;;5106120;27;20547;-82
2023/10/27 03:27:30;;;;;;;4.37;3.97;;;9.90;99.90;;;;;;5113706;27;20575;-81
2023/10/27 03:29:57;;;;;;;4.77;4.37;;;10.00;99.90;;;;;;5105845;27;20450;-81
2023/10/27 03:32:24;;;;;;;5.37;4.87;;;10.00;99.90;;;;;;5112556;27;20449;-81
2023/10/27 03:34:51;;;;;;;5.03;4.53;;;10.00;99.90;;;;;;5119786;27;20483;-81
2023/10/27 03:37:18;;;;;;;6.47;5.80;;;10.00;99.90;;;;;;5115654;27;20473;-81
2023/10/27 03:39:45;;;;;;;7.63;6.60;;;10.00;99.90;;;;;;5113994;27;20574;-80
2023/10/27 03:42:13;;;;;;;6.43;5.83;;;10.00;99.90;;;;;;5106315;27;20466;-81
2023/10/27 03:44:40;;;;;;;4.67;3.97;;;10.00;99.90;;;;;;5104383;27;20508;-81
2023/10/27 03:47:07;;;;;;;7.53;5.67;;;10.00;99.90;;;;;;5112338;27;20481;-81
2023/10/27 03:49:34;;;;;;;6.87;6.17;;;10.00;99.90;;;;;;5111152;27;20521;-81
2023/10/27 03:52:01;;;;;;;5.30;4.90;;;10.00;99.90;;;;;;5117112;27;20855;-81
2023/10/27 03:54:28;;;;;;;6.13;5.00;;;10.10;99.90;;;;;;5106917;27;20525;-81
2023/10/27 03:56:56;;;;;;;5.37;4.93;;;10.10;99.90;;;;;;5115565;27;20441;-81
2023/10/27 03:59:25;;;;;;;5.63;5.10;;;10.10;99.90;;;;;;5106077;27;20823;-81
2023/10/27 04:01:51;;;;;;;5.00;4.60;;;10.10;99.90;;;;;;5115816;27;20854;-81
2023/10/27 04:04:19;;;;;;;7.13;5.37;;;10.10;99.90;;;;;;5118669;27;20575;-81
2023/10/27 04:06:46;;;;;;;7.40;6.73;;;10.10;99.90;;;;;;5115381;27;20576;-82
2023/10/27 04:09:13;;;;;;;10.43;6.90;;;10.00;99.90;;;;;;5106195;27;20460;-82
2023/10/27 04:11:40;;;;;;;10.47;9.43;;;10.00;99.90;;;;;;5110059;27;20530;-82
2023/10/27 04:14:06;;;;;;;8.20;7.43;;;10.00;99.90;;;;;;5112011;27;20461;-82
2023/10/27 04:16:35;;;;;;;8.67;7.97;;;9.90;99.90;;;;;;5112961;27;20453;-83
2023/10/27 04:19:02;;;;;;;8.37;6.63;;;9.90;99.90;;;;;;5134512;27;20506;-82
2023/10/27 04:21:29;;;;;;;11.87;9.57;;;9.90;99.90;;;;;;5118228;27;20510;-82
2023/10/27 04:23:57;;;;;;;8.20;7.40;;;9.90;99.90;;;;;;5109467;27;20536;-83
2023/10/27 04:26:23;;;;;;;7.57;6.87;;;9.90;99.90;;;;;;5105081;27;20539;-82
2023/10/27 04:28:50;;;;;;;8.30;7.50;;;9.90;99.90;;;;;;5116215;27;20512;-83
2023/10/27 04:31:18;;;;;;;14.10;9.53;;;9.90;99.90;;;;;;5112064;27;20547;-83
2023/10/27 04:33:48;;;;;;;8.43;7.57;;;10.00;99.90;;;;;;5103773;27;20457;-83
2023/10/27 04:36:15;;;;;;;9.07;8.17;;;9.90;99.90;;;;;;5129716;27;20444;-83
2023/10/27 04:38:42;;;;;;;7.20;6.50;;;9.90;99.90;;;;;;5117198;27;20510;-84
2023/10/27 04:41:09;;;;;;;10.90;8.40;;;10.00;99.90;;;;;;5114626;27;20468;-83
2023/10/27 04:43:36;;;;;;;8.23;7.43;;;10.00;99.90;;;;;;5109822;27;20543;-84
2023/10/27 04:46:04;;;;;;;8.50;7.60;;;10.00;99.90;;;;;;5112187;27;20529;-83
2023/10/27 04:48:31;;;;;;;13.57;7.67;;;10.00;99.90;;;;;;5109879;27;20496;-84
2023/10/27 04:51:02;;;;;;;7.43;6.20;;;10.00;99.90;;;;;;5108316;27;20493;-84
2023/10/27 04:53:30;;;;;;;8.17;7.37;;;10.00;99.90;;;;;;5103736;27;20955;-83
2023/10/27 04:55:57;;;;;;;7.10;6.40;;;10.00;99.90;;;;;;5107261;27;20525;-84
2023/10/27 04:58:24;;;;;;;9.90;7.27;;;10.00;99.90;;;;;;5113178;27;20465;-84
2023/10/27 05:00:52;;;;;;;9.60;7.80;;;10.00;99.90;;;;;;5114421;27;20448;-83
2023/10/27 05:03:19;;;;;;;9.73;8.20;;;10.10;99.90;;;;;;5109801;27;20856;-83
2023/10/27 05:05:46;;;;;;;10.30;8.73;;;10.10;99.90;;;;;;5114743;27;20501;-81
2023/10/27 05:08:15;;;;;;;10.43;9.40;;;10.10;99.90;;;;;;5108792;27;20561;-82
2023/10/27 05:10:42;;;;;;;11.77;9.83;;;10.10;99.90;;;;;;5108277;27;20461;-82
2023/10/27 05:13:09;;;;;;;13.37;10.20;;;10.10;99.90;;;;;;5111287;27;20524;-81
2023/10/27 05:15:37;;;;;;;14.03;12.03;;;10.10;99.90;;;;;;5111834;27;20515;-81
2023/10/27 05:18:05;;;;;;;11.40;10.20;;;10.10;99.90;;;;;;5107432;27;20536;-81
2023/10/27 05:20:37;;;;;;;10.60;9.57;;;10.10;99.90;;;;;;5112004;27;20524;-82
2023/10/27 05:23:04;;;;;;;11.83;9.23;;;10.20;99.90;;;;;;5115759;27;20534;-81
2023/10/27 05:25:34;;;;;;;11.13;9.80;;;10.20;99.90;;;;;;5115091;27;20445;-82
2023/10/27 05:28:01;;;;;;;11.20;9.80;;;10.20;99.90;;;;;;5118707;27;20485;-82
2023/10/27 05:30:28;;;;;;;13.57;11.47;;;10.20;99.90;;;;;;5106484;27;20717;-82
2023/10/27 05:32:55;;;;;;;14.67;11.53;;;10.20;99.90;;;;;;5108910;27;20506;-83
2023/10/27 05:35:22;;;;;;;13.23;11.10;;;10.20;99.90;;;;;;5117254;27;20983;-83
2023/10/27 05:37:49;;;;;;;14.60;12.97;;;10.20;99.90;;;;;;5107930;27;20503;-82
2023/10/27 05:40:16;;;;;;;13.53;12.10;;;10.30;99.90;;;;;;5117312;27;20518;-82
2023/10/27 05:42:45;;;;;;;16.93;11.93;;;10.20;99.90;;;;;;5108524;27;20522;-82
2023/10/27 05:45:13;;;;;;;14.13;11.67;;;10.30;99.90;;;;;;5115380;27;20605;-83
2023/10/27 05:47:40;;;;;;;11.53;10.30;;;10.30;99.90;;;;;;5110294;27;20480;-83
2023/10/27 05:50:08;;;;;;;9.93;8.80;;;10.30;99.90;;;;;;5108148;27;20462;-83
2023/10/27 05:52:35;;;;;;;10.93;9.43;;;10.30;99.90;;;;;;5117583;27;20442;-83
2023/10/27 05:55:02;;;;;;;14.23;12.80;;;10.40;99.90;;;;;;5112169;27;20527;-83
2023/10/27 05:57:29;;;;;;;12.57;9.70;;;10.40;99.90;;;;;;5120421;27;20835;-83
2023/10/27 05:59:57;;;;;;;11.07;10.00;;;10.40;99.90;;;;;;5110509;27;20762;-83
2023/10/27 06:02:24;;;;;;;10.60;9.50;;;10.40;99.90;;;;;;5115503;27;20444;-83
2023/10/27 06:04:51;;;;;;;12.20;9.53;;;10.40;99.90;;;;;;5116412;27;20453;-83
2023/10/27 06:07:18;;;;;;;11.30;9.20;;;10.40;99.90;;;;;;5109277;27;20481;-83
2023/10/27 06:09:46;;;;;;;11.37;8.90;;;10.50;99.90;;;;;;5109839;27;20526;-83
2023/10/27 06:12:13;;;;;;;13.50;10.70;;;10.50;99.90;;;;;;5109664;27;20509;-84
2023/10/27 06:14:44;;;;;;;12.40;11.10;;;10.50;99.90;;;;;;5112382;27;20449;-83
2023/10/27 06:17:13;;;;;;;10.83;8.37;;;10.50;99.90;;;;;;5122195;27;20458;-84
2023/10/27 06:19:40;;;;;;;14.00;10.83;;;10.50;99.90;;;;;;5105650;27;20442;-83
2023/10/27 06:22:09;;;;;;;11.40;8.83;;;10.50;99.90;;;;;;5114871;27;20990;-84
2023/10/27 06:24:36;;;;;;;14.60;9.20;;;10.50;99.90;;;;;;5108033;27;20502;-83
2023/10/27 06:27:05;;;;;;;12.63;10.40;;;10.60;99.90;;;;;;5111986;27;20661;-83
2023/10/27 06:29:32;;;;;;;15.13;10.40;;;10.60;99.90;;;;;;5113225;27;20457;-83
2023/10/27 06:31:58;;;;;;;14.53;9.80;;;10.60;99.90;;;;;;5108314;27;20461;-84
2023/10/27 06:34:27;;;;;;;12.40;9.70;;;10.60;99.90;;;;;;5107555;27;20461;-82
2023/10/27 06:36:54;;;;;;;12.50;10.77;;;10.60;99.90;;;;;;5125065;27;20505;-82
2023/10/27 06:39:21;;;;;;;16.77;10.50;;;10.60;99.90;;;;;;5110432;27;20464;-83
2023/10/27 06:41:49;;;;;;;10.40;9.40;;;10.60;99.90;;;;;;5110915;27;20445;-83
2023/10/27 06:44:17;;;;;;;9.30;7.40;;;10.60;99.90;;;;;;5112464;27;20484;-83
2023/10/27 06:46:45;;;;;;;9.60;7.37;;;10.60;99.90;;;;;;5113220;27;20477;-83
2023/10/27 06:49:12;;;;;;;7.73;5.30;;;10.60;99.90;;;;;;5112473;27;20547;-83
2023/10/27 06:51:41;;;;;;;6.60;5.50;;;10.60;99.90;;;;;;5112916;27;20913;-82
2023/10/27 06:54:08;;;;;;;5.73;4.90;;;10.60;99.90;;;;;;5106931;27;20852;-83
2023/10/27 06:56:35;;;;;;;5.23;4.73;;;10.60;99.90;;;;;;5115817;27;20861;-83
2023/10/27 06:59:02;;;;;;;6.17;5.07;;;10.60;99.90;;;;;;5115603;27;20784;-83
2023/10/27 07:01:29;;;;;;;5.57;4.40;;;10.60;99.90;;;;;;5120195;27;20848;-82
2023/10/27 07:03:56;;;;;;;4.60;4.30;;;10.50;99.90;;;;;;5113369;27;20464;-83
2023/10/27 07:06:23;;;;;;;2.73;2.53;;;10.50;99.90;;;;;;5124672;27;20454;-82
2023/10/27 07:08:51;;;;;;;2.60;2.30;;;10.50;99.90;;;;;;5121045;27;20525;-82
2023/10/27 07:11:18;;;;;;;2.10;1.90;;;10.50;99.90;;;;;;5109960;27;20485;-82
2023/10/27 07:13:45;;;;;;;2.10;1.73;;;10.50;99.90;;;;;;5102604;27;20554;-82
2023/10/27 07:16:12;;;;;;;2.07;1.17;;;10.40;99.90;;;;;;5111741;27;20462;-82
2023/10/27 07:18:40;;;;;;;1.77;1.67;;;10.40;99.90;;;;;;5108403;27;20503;-82
2023/10/27 07:21:09;;;;;;;0.73;0.73;;;10.40;99.90;;;;;;5116656;27;21043;-83
2023/10/27 07:23:36;;;;;;;2.00;1.10;;;10.40;99.90;;;;;;5108316;27;20523;-82
2023/10/27 07:26:13;;;;;;;1.07;0.97;;;10.40;99.90;;;;;;5116904;27;20938;-83
2023/10/27 07:28:41;;;;;;;0.80;0.80;;;10.30;99.90;;;;;;5113042;27;21080;-83
2023/10/27 07:31:09;;;;;;;0.90;0.90;;;10.30;99.90;;;;;;5109027;27;20461;-82
2023/10/27 07:33:38;;;;;;;0.70;0.70;;;10.30;99.90;;;;;;5106000;27;20461;-82
2023/10/27 07:36:06;;;;;;;1.10;0.97;;;10.30;99.90;;;;;;5123327;27;20460;-82
2023/10/27 07:38:34;;;;;;;0.60;0.60;;;10.30;99.90;;;;;;5104278;27;20466;-82
2023/10/27 07:41:02;;;;;;;1.47;1.07;;;10.30;99.90;;;;;;5117305;27;20487;-82
2023/10/27 07:43:30;;;;;;;0.80;0.80;;;10.30;99.90;;;;;;5105090;27;20469;-82
2023/10/27 07:45:57;;;;;;;1.03;0.93;;;10.30;99.90;;;;;;5114113;27;20892;-83
2023/10/27 07:48:24;;;;;;;0.80;0.73;;;10.30;99.90;;;;;;5109350;27;20529;-82
2023/10/27 07:50:54;;;;;;;0.70;0.70;;;10.30;99.90;;;;;;5110249;27;21099;-83
2023/10/27 07:53:21;;;;;;;0.70;0.70;;;10.30;99.90;;;;;;5106974;27;20446;-83
2023/10/27 07:55:48;;;;;;;1.47;1.20;;;10.40;99.90;;;;;;5112721;27;20437;-82
2023/10/27 07:58:15;;;;;;;1.20;1.10;;;10.40;99.90;;;;;;5110923;27;21153;-82
2023/10/27 08:00:43;;;;;;;2.30;1.73;;;10.40;99.90;;;;;;5112241;27;20440;-82
2023/10/27 08:03:10;;;;;;;3.50;1.10;;;10.40;99.90;;;;;;5113913;27;20933;-82
2023/10/27 08:05:38;;;;;;;0.80;0.70;;;10.50;99.90;;;;;;5110342;27;20519;-82
2023/10/27 08:08:06;;;;;;;1.13;0.70;;;10.50;99.90;;;;;;5108895;27;20515;-82
2023/10/27 08:10:33;;;;;;;0.60;0.50;;;10.40;99.90;;;;;;5105142;27;20472;-82
2023/10/27 08:13:00;;;;;;;0.50;0.50;;;10.50;99.90;;;;;;5105877;27;20564;-83
2023/10/27 08:15:27;;;;;;;0.60;0.60;;;10.50;99.90;;;;;;5116133;27;20436;-83
2023/10/27 08:17:56;;;;;;;0.63;0.50;;;10.50;99.90;;;;;;5109606;27;20465;-82
2023/10/27 08:20:23;;;;;;;0.50;0.50;;;10.60;99.90;;;;;;5112639;27;20971;-82
2023/10/27 08:22:50;;;;;;;8.10;6.93;;;10.60;99.90;;;;;;5121760;27;20438;-82
2023/10/27 08:25:22;;;;;;;16.20;7.33;;;10.60;99.90;;;;;;5108160;27;20499;-83
2023/10/27 08:27:49;;;;;;;38.13;26.30;;;10.60;99.90;;;;;;5108017;27;20516;-83
2023/10/27 08:30:16;;;;;;;14.03;12.83;;;10.60;99.90;;;;;;5106038;27;20488;-82
2023/10/27 08:32:43;;;;;;;7.47;6.63;;;10.60;99.90;;;;;;5110915;27;20454;-82
2023/10/27 08:35:11;;;;;;;5.30;4.87;;;10.60;99.90;;;;;;5115301;27;20449;-82
2023/10/27 08:37:38;;;;;;;28.03;24.27;;;10.60;99.90;;;;;;5112234;27;20442;-82
2023/10/27 08:40:10;;;;;;;4.40;3.03;;;10.50;99.90;;;;;;5122219;27;20458;-82
2023/10/27 08:42:37;;;;;;;6.90;5.83;;;10.50;99.90;;;;;;5121444;27;20883;-82
2023/10/27 08:45:05;;;;;;;9.73;8.87;;;10.50;99.90;;;;;;5106435;27;20469;-82
2023/10/27 08:47:34;;;;;;;1.60;1.47;;;10.50;99.90;;;;;;5119419;27;20994;-82
2023/10/27 08:50:02;;;;;;;12.97;11.60;;;10.50;99.90;;;;;;5106426;27;20466;-82
2023/10/27 08:52:31;;;;;;;4.47;4.10;;;10.50;99.90;;;;;;5112436;27;20442;-82
2023/10/27 08:55:01;;;;;;;4.50;4.10;;;10.50;99.90;;;;;;5117058;27;20771;-83
2023/10/27 08:57:28;;;;;;;22.83;20.67;;;10.50;99.90;;;;;;5117100;27;20461;-82
2023/10/27 08:59:56;;;;;;;5.83;5.43;;;10.60;99.90;;;;;;5104565;27;20484;-82
2023/10/27 09:02:30;;;;;;;1.63;1.53;;;10.60;99.90;;;;;;5114942;27;20835;-81
2023/10/27 09:05:05;;;;;;;2.63;2.40;;;10.60;99.90;;;;;;5112208;27;20552;-82
2023/10/27 09:07:33;;;;;;;1.27;1.20;;;10.50;99.90;;;;;;5112509;27;20539;-82
2023/10/27 09:10:01;;;;;;;0.80;0.80;;;10.60;99.90;;;;;;5109002;27;20497;-82
2023/10/27 09:12:30;;;;;;;2.17;1.93;;;10.60;99.90;;;;;;5111050;27;20489;-82
2023/10/27 09:15:04;;;;;;;2.13;2.03;;;10.60;99.90;;;;;;5109966;27;20502;-82
2023/10/27 09:17:32;;;;;;;2.27;2.07;;;10.60;99.90;;;;;;5110077;27;20476;-82
2023/10/27 09:20:06;;;;;;;0.80;0.80;;;10.70;99.90;;;;;;5107038;27;20453;-82
2023/10/27 09:22:36;;;;;;;3.17;2.97;;;10.60;99.90;;;;;;5109330;27;20452;-82
2023/10/27 09:25:17;;;;;;;1.83;1.73;;;10.70;99.90;;;;;;5109283;27;21064;-82
2023/10/27 09:27:45;;;;;;;2.67;2.47;;;10.70;99.90;;;;;;5108024;27;20532;-82
2023/10/27 09:30:13;;;;;;;1.17;0.70;;;10.70;99.90;;;;;;5122302;27;20797;-82
2023/10/27 09:32:42;;;;;;;0.70;0.70;;;10.80;99.90;;;;;;5104083;27;20542;-82
2023/10/27 09:35:10;;;;;;;1.17;0.60;;;10.90;99.90;;;;;;5111695;27;20439;-82
2023/10/27 09:37:38;;;;;;;0.60;0.60;;;10.80;99.90;;;;;;5113378;27;20949;-82
2023/10/27 09:40:08;;;;;;;0.70;0.60;;;10.90;99.90;;;;;;5105742;27;20549;-82
2023/10/27 09:42:38;;;;;;;0.50;0.47;;;10.90;99.90;;;;;;5119700;27;20465;-82
2023/10/27 09:45:09;;;;;;;0.53;0.40;;;11.00;99.90;;;;;;5104302;27;20871;-82
2023/10/27 09:47:47;;;;;;;0.70;0.70;;;11.00;99.90;;;;;;5122528;27;20442;-82
2023/10/27 09:50:16;;;;;;;3.30;3.00;;;11.00;99.90;;;;;;5104733;27;20793;-82
2023/10/27 09:52:49;;;;;;;5.90;4.77;;;11.00;99.90;;;;;;5115164;27;20442;-82
2023/10/27 09:55:19;;;;;;;0.80;0.70;;;11.10;99.90;;;;;;5104204;27;20953;-82
2023/10/27 09:57:46;;;;;;;2.40;1.97;;;11.20;99.90;;;;;;5115376;27;20521;-82
2023/10/27 10:00:16;;;;;;;0.70;0.70;;;11.20;99.90;;;;;;5112012;27;20478;-82
2023/10/27 10:02:43;;;;;;;1.73;1.63;;;11.20;99.90;;;;;;5113851;27;20531;-82
2023/10/27 10:05:11;;;;;;;3.40;3.20;;;11.30;99.90;;;;;;5102826;27;20529;-82
2023/10/27 10:07:42;;;;;;;2.70;2.03;;;11.40;99.90;;;;;;5108272;27;20469;-82
2023/10/27 10:10:26;;;;;;;5.40;3.73;;;11.40;99.90;;;;;;5117031;27;20466;-83
2023/10/27 10:13:08;;;;;;;1.10;0.97;;;11.40;99.90;;;;;;5113676;27;20476;-83
2023/10/27 10:15:36;;;;;;;0.80;0.70;;;11.60;99.90;;;;;;5106211;27;20462;-84
2023/10/27 10:18:06;;;;;;;0.80;0.70;;;11.80;99.90;;;;;;5114798;27;20467;-84
2023/10/27 10:20:58;;;;;;;0.97;0.80;;;12.00;99.90;;;;;;5114786;27;20463;-84
2023/10/27 10:23:56;;;;;;;0.93;0.50;;;12.30;99.90;;;;;;5119512;27;20530;-83
2023/10/27 10:27:04;;;;;;;1.00;0.67;;;12.50;99.90;;;;;;5113076;27;20527;-84
2023/10/27 10:29:32;;;;;;;0.73;0.70;;;12.80;99.90;;;;;;5105711;27;21471;-84
2023/10/27 10:32:34;;;;;;;0.60;0.50;;;12.70;99.90;;;;;;5117560;27;20468;-83
2023/10/27 10:35:19;;;;;;;0.50;0.50;;;12.40;99.90;;;;;;5117933;27;20470;-83
2023/10/27 10:37:46;;;;;;;0.50;0.50;;;12.40;99.90;;;;;;5123439;27;20602;-83
2023/10/27 10:40:22;;;;;;;0.70;0.40;;;12.30;99.90;;;;;;5113103;27;20472;-83
2023/10/27 10:43:20;;;;;;;0.97;0.37;;;12.10;99.90;;;;;;5110722;27;20468;-85
2023/10/27 10:45:50;;;;;;;0.50;0.40;;;11.80;99.90;;;;;;5107685;27;20525;-84
2023/10/27 10:48:18;;;;;;;0.50;0.30;;;11.70;99.90;;;;;;5118413;27;20486;-84
2023/10/27 10:50:45;;;;;;;0.60;0.40;;;11.60;99.90;;;;;;5115736;27;20465;-84
2023/10/27 10:53:21;;;;;;;0.50;0.30;;;11.60;99.90;;;;;;5128351;27;20521;-84
2023/10/27 10:55:50;;;;;;;0.40;0.40;;;11.50;99.90;;;;;;5106663;27;20943;-85
2023/10/27 10:58:23;;;;;;;0.40;0.40;;;11.50;99.90;;;;;;5121899;27;20485;-82
2023/10/27 11:00:50;;;;;;;0.43;0.33;;;11.40;99.90;;;;;;5113765;27;20546;-83
2023/10/27 11:03:18;;;;;;;1.20;0.40;;;11.40;99.90;;;;;;5105471;27;20560;-82
2023/10/27 11:05:47;;;;;;;0.90;0.50;;;11.40;99.90;;;;;;5113125;27;20473;-83
2023/10/27 11:08:23;;;;;;;0.60;0.50;;;11.50;99.90;;;;;;5117200;27;20517;-83
2023/10/27 11:10:59;;;;;;;0.60;0.37;;;11.40;99.90;;;;;;5113221;27;20494;-83
2023/10/27 11:13:28;;;;;;;2.93;1.30;;;11.50;99.90;;;;;;5108336;27;20945;-82
2023/10/27 11:15:55;;;;;;;0.50;0.40;;;11.50;99.90;;;;;;5114850;27;20434;-82
2023/10/27 11:18:22;;;;;;;0.50;0.40;;;11.50;99.90;;;;;;5112884;27;20921;-83
2023/10/27 11:20:49;;;;;;;0.40;0.30;;;11.50;99.90;;;;;;5112799;27;20794;-83
2023/10/27 11:23:17;;;;;;;0.60;0.60;;;11.50;99.90;;;;;;5106164;27;20466;-82
2023/10/27 11:25:45;;;;;;;0.70;0.60;;;11.60;99.90;;;;;;5105745;27;20772;-82
2023/10/27 11:28:19;;;;;;;0.50;0.50;;;11.60;99.90;;;;;;5109047;27;21149;-82
2023/10/27 11:30:59;;;;;;;1.10;1.00;;;11.70;99.90;;;;;;5117427;27;20520;-82
2023/10/27 11:33:26;;;;;;;0.50;0.50;;;11.90;99.90;;;;;;5112368;27;20462;-83
2023/10/27 11:35:53;;;;;;;1.07;0.80;;;12.00;99.90;;;;;;5118876;27;20519;-82
2023/10/27 11:38:22;;;;;;;1.23;1.13;;;12.20;99.90;;;;;;5115744;27;21158;-82
2023/10/27 11:40:49;;;;;;;1.10;0.80;;;12.30;99.90;;;;;;5107098;27;20467;-83
2023/10/27 11:43:16;;;;;;;0.57;0.53;;;12.10;99.90;;;;;;5110096;27;20451;-83
2023/10/27 11:45:44;;;;;;;0.80;0.50;;;12.30;99.90;;;;;;5111898;27;20495;-82
2023/10/27 11:48:13;;;;;;;0.50;0.50;;;12.30;99.90;;;;;;5109421;27;20520;-82
2023/10/27 11:50:40;;;;;;;0.90;0.77;;;12.50;99.90;;;;;;5113281;27;20455;-83
2023/10/27 11:53:07;;;;;;;2.30;0.47;;;12.70;99.90;;;;;;5124072;27;20452;-83
2023/10/27 11:55:34;;;;;;;0.60;0.50;;;12.80;99.90;;;;;;5108981;27;20451;-83
2023/10/27 11:58:01;;;;;;;0.50;0.43;;;12.80;99.90;;;;;;5114528;27;20819;-82
2023/10/27 12:00:28;;;;;;;0.60;0.60;;;12.80;99.90;;;;;;5105650;27;20452;-83
2023/10/27 12:02:56;;;;;;;0.40;0.40;;;12.80;99.90;;;;;;5106765;27;20543;-82
2023/10/27 12:05:25;;;;;;;0.50;0.30;;;12.80;99.90;;;;;;5115298;27;20468;-82
2023/10/27 12:07:52;;;;;;;0.40;0.30;;;12.70;99.90;;;;;;5110458;27;20516;-83
2023/10/27 12:10:19;;;;;;;0.40;0.20;;;12.70;99.90;;;;;;5106913;27;20565;-83
2023/10/27 12:12:47;;;;;;;0.43;0.30;;;12.60;99.90;;;;;;5105907;27;20522;-83
2023/10/27 12:15:14;;;;;;;0.40;0.30;;;12.50;99.90;;;;;;5110135;27;21003;-83
2023/10/27 12:17:42;;;;;;;0.70;0.40;;;12.50;99.90;;;;;;5121262;27;20860;-82
2023/10/27 12:20:12;;;;;;;0.77;0.40;;;12.50;99.90;;;;;;5119064;27;20625;-83
2023/10/27 12:22:45;;;;;;;0.53;0.43;;;12.70;99.90;;;;;;5105867;27;20573;-83
2023/10/27 12:25:13;;;;;;;0.50;0.30;;;12.70;99.90;;;;;;5107372;27;20470;-83
2023/10/27 12:27:40;;;;;;;0.50;0.30;;;12.90;99.90;;;;;;5108137;27;20534;-83
2023/10/27 12:30:10;;;;;;;0.60;0.40;;;12.90;99.90;;;;;;5105838;27;20539;-83
2023/10/27 12:32:37;;;;;;;1.43;0.33;;;12.90;99.90;;;;;;5127887;27;20454;-83
2023/10/27 12:35:06;;;;;;;0.40;0.30;;;12.90;99.90;;;;;;5112064;27;20986;-83
2023/10/27 12:37:33;;;;;;;0.80;0.30;;;12.80;99.90;;;;;;5122358;27;20462;-83
2023/10/27 12:40:04;;;;;;;1.47;0.30;;;12.80;99.90;;;;;;5115820;27;20464;-82
2023/10/27 12:42:31;;;;;;;0.30;0.20;;;12.70;99.90;;;;;;5117324;27;20498;-83
2023/10/27 12:44:58;;;;;;;1.27;0.30;;;12.70;99.90;;;;;;5122480;27;20463;-83
2023/10/27 12:47:25;;;;;;;0.80;0.30;;;12.50;99.90;;;;;;5111664;27;20509;-83
2023/10/27 12:49:52;;;;;;;0.40;0.30;;;12.50;99.90;;;;;;5109884;27;20526;-82
2023/10/27 12:52:20;;;;;;;0.40;0.30;;;12.40;99.90;;;;;;5112930;27;20467;-82
2023/10/27 12:54:47;;;;;;;0.40;0.30;;;12.30;99.90;;;;;;5109641;27;20937;-83